KMQJ

Indianapolis Regional Airport

Indianapolis, Indiana, USA
METAR KMQJ 191455Z AUTO 20009KT 10SM CLR M04/M08 A3009 RMK AO1
Observed Flight Rules
Jan-19 @ 14:55 UTC (32 minutes ago) Visual Flight Rules
Wind Visibility Clouds
200° at 9 knots 10 miles
  • Clear skies
Temperatures Readings
Current -4°C / 25°F
Dewpoint -8°C / 18°F
Humidity 74%
Altimeter 30.09" Hg
Pressure 1019 hPa
Elevation 263
METAR KMQJ 191455Z AUTO 20009KT 10SM CLR M04/M08 A3009 RMK AO1
Observed Flight Rules
Jan-19 @ 14:55 UTC
(32 minutes ago)
VFR
Wind Visibility
200° at 9 knots 10 miles
Clouds
  • Clear skies
Temperature Dewpoint
-4°C / 25°F -8°C / 18°F
Humidity Altimeter Pressure
74% 30.09" Hg 1019 hPa